KLOZ/LOZ METAR and TAF weather

Enter ICAO airport designator
Station Type Date Time Source
KLOZ METAR 2022/06/30 12:53 UTC NOAA

KLOZ 301253Z AUTO 20003KT 10SM CLR 23/18 A3025 RMK AO2 SLP229 T02330178


Station Type Date Time Source
KLOZ Decoded METAR 2022/06/30 12:53 UTC NOAA

LONDON-CORBIN AIRPORT, KY, United States (KLOZ) 37-05N 084-04W 362M
Jun 30, 2022 - 08:53 AM EDT / 2022.06.30 1253 UTC
Wind: from the SSW (200 degrees) at 3 MPH (3 KT):0
Visibility: 10 mile(s):0
Sky conditions: clear
Temperature: 73.9 F (23.3 C)
Dew Point: 64.0 F (17.8 C)
Relative Humidity: 71%
Pressure (altimeter): 30.25 in. Hg (1024 hPa)
ob: KLOZ 301253Z AUTO 20003KT 10SM CLR 23/18 A3025 RMK AO2 SLP229 T02330178
cycle: 13

Station Type Date Time Source
KLOZ TAF 2022/06/30 12:39 UTC NOAA

TAF KLOZ 301136Z 3012/0112 VRB03KT P6SM SKC
FM301500 21005KT P6SM SCT050
FM010000 VRB03KT P6SM SKC

Example: see airport list